createdAt,value
2023-05-14T00:01:37.737Z,12.05
2023-05-14T00:06:39.920Z,11.66
2023-05-14T00:11:41.700Z,11.21
2023-05-14T00:16:43.480Z,10.81
2023-05-14T00:21:47.102Z,11.68
2023-05-14T00:26:48.822Z,14.78
2023-05-14T00:31:50.789Z,15.44
2023-05-14T00:36:53.240Z,13.71
2023-05-14T00:41:55.424Z,12.63
2023-05-14T00:46:58.740Z,11.93
2023-05-14T00:52:01.162Z,11.35
2023-05-14T00:57:05.752Z,10.82
2023-05-14T01:02:07.659Z,10.35
2023-05-14T01:07:46.998Z,9.97
2023-05-14T01:13:13.760Z,11.20
2023-05-14T01:18:19.023Z,14.33
2023-05-14T01:23:20.790Z,15.69
2023-05-14T01:28:32.509Z,15.56
2023-05-14T01:33:36.636Z,13.56
2023-05-14T01:38:39.408Z,12.36
2023-05-14T01:43:41.917Z,11.51
2023-05-14T01:48:43.696Z,10.86
2023-05-14T01:53:45.887Z,10.33
2023-05-14T01:58:47.659Z,9.90
2023-05-14T02:03:49.464Z,9.49
2023-05-14T02:08:51.408Z,10.40
2023-05-14T02:13:53.083Z,13.33
2023-05-14T02:18:54.876Z,14.82
2023-05-14T02:23:57.049Z,13.94
2023-05-14T02:28:58.902Z,12.12
2023-05-14T02:34:02.341Z,10.93
2023-05-14T02:39:05.028Z,10.15
2023-05-14T02:44:06.714Z,9.60
2023-05-14T02:49:08.791Z,9.19
2023-05-14T02:54:10.667Z,8.88
2023-05-14T02:59:12.545Z,9.81
2023-05-14T03:04:15.341Z,12.86
2023-05-14T03:09:17.123Z,13.52
2023-05-14T03:14:19.015Z,11.76
2023-05-14T03:19:20.879Z,10.67
2023-05-14T03:24:22.652Z,9.97
2023-05-14T03:29:24.450Z,9.42
2023-05-14T03:34:26.305Z,8.98
2023-05-14T03:39:28.078Z,9.81
2023-05-14T03:44:29.851Z,12.69
2023-05-14T03:49:31.800Z,14.29
2023-05-14T03:54:33.711Z,14.44
2023-05-14T03:59:35.488Z,12.68
2023-05-14T04:04:37.425Z,11.53
2023-05-14T04:09:39.342Z,10.86
2023-05-14T04:14:41.335Z,10.43
2023-05-14T04:19:43.096Z,10.19
2023-05-14T04:24:44.788Z,11.26
2023-05-14T04:29:50.312Z,14.32
2023-05-14T04:34:52.106Z,15.94
2023-05-14T04:39:53.979Z,16.12
2023-05-14T04:44:55.862Z,14.63
2023-05-14T04:49:57.960Z,13.81
2023-05-14T04:54:59.712Z,13.41
2023-05-14T05:00:05.176Z,13.17
2023-05-14T05:05:08.508Z,13.03
2023-05-14T05:10:10.599Z,13.00
2023-05-14T05:15:16.076Z,13.10
2023-05-14T05:20:18.771Z,13.28
2023-05-14T05:25:23.475Z,13.52
2023-05-14T05:30:25.708Z,13.79
2023-05-14T05:35:27.854Z,14.07
2023-05-14T05:40:30.131Z,14.27
2023-05-14T05:45:32.050Z,14.52
2023-05-14T05:50:33.890Z,14.81
2023-05-14T05:55:36.174Z,15.06
2023-05-14T06:00:37.963Z,15.35
2023-05-14T06:05:40.541Z,15.65
2023-05-14T06:10:42.532Z,15.88
2023-05-14T06:15:44.412Z,16.14
2023-05-14T06:20:46.386Z,16.47
2023-05-14T06:25:50.864Z,16.78
2023-05-14T06:30:55.774Z,17.10
2023-05-14T06:36:05.180Z,17.35
2023-05-14T06:41:07.101Z,17.66
2023-05-14T06:46:08.975Z,18.00
2023-05-14T06:51:12.806Z,18.27
2023-05-14T06:56:14.726Z,18.57
2023-05-14T07:01:17.130Z,18.90
2023-05-14T07:06:19.252Z,19.20
2023-05-14T07:11:21.747Z,19.55
2023-05-14T07:16:23.580Z,19.88
2023-05-14T07:21:26.525Z,20.18
2023-05-14T07:26:28.404Z,20.42
2023-05-14T07:31:30.521Z,20.70
2023-05-14T07:36:33.283Z,21.02
2023-05-14T07:41:35.174Z,21.39
2023-05-14T07:46:37.041Z,21.70
2023-05-14T07:51:38.924Z,21.98
2023-05-14T07:56:40.896Z,22.15
2023-05-14T08:01:42.788Z,22.35
2023-05-14T08:06:44.966Z,22.51
2023-05-14T08:11:46.948Z,22.70
2023-05-14T08:16:49.158Z,22.90
2023-05-14T08:21:51.216Z,23.15
2023-05-14T08:26:53.103Z,23.45
2023-05-14T08:31:54.981Z,23.69
2023-05-14T08:36:56.949Z,23.95
2023-05-14T08:42:01.598Z,24.17
2023-05-14T08:47:04.283Z,24.45
2023-05-14T08:52:08.100Z,24.69
2023-05-14T08:57:10.910Z,24.95
2023-05-14T09:02:16.361Z,25.23
2023-05-14T09:07:18.458Z,25.35
2023-05-14T09:12:21.656Z,25.50
2023-05-14T09:17:27.385Z,25.70
2023-05-14T09:22:33.093Z,25.97
2023-05-14T09:27:36.094Z,26.18
2023-05-14T09:32:41.990Z,26.32
2023-05-14T09:37:47.244Z,26.40
2023-05-14T09:42:50.020Z,26.63
2023-05-14T09:47:52.978Z,27.04
2023-05-14T09:52:55.719Z,27.28
2023-05-14T09:57:57.592Z,27.44
2023-05-14T10:03:06.451Z,27.53
2023-05-14T10:08:37.312Z,27.25
2023-05-14T10:13:49.775Z,26.95
2023-05-14T10:18:57.849Z,27.01
2023-05-14T10:24:00.436Z,27.42
2023-05-14T10:29:02.832Z,27.97
2023-05-14T10:34:43.721Z,28.34
2023-05-14T10:40:18.867Z,28.64
2023-05-14T10:45:22.712Z,28.66
2023-05-14T10:50:26.411Z,28.85
2023-05-14T10:55:29.118Z,29.24
2023-05-14T11:00:34.987Z,29.67
2023-05-14T11:05:38.807Z,29.98
2023-05-14T11:10:42.844Z,30.13
2023-05-14T11:15:47.691Z,30.33
2023-05-14T11:20:49.473Z,30.38
2023-05-14T11:25:53.756Z,29.86
2023-05-14T11:30:55.989Z,29.19
2023-05-14T11:35:57.860Z,29.14
2023-05-14T11:40:59.965Z,29.16
2023-05-14T11:46:02.071Z,28.76
2023-05-14T11:51:04.520Z,28.23
2023-05-14T11:56:08.284Z,27.73
2023-05-14T12:01:13.907Z,27.29
2023-05-14T12:06:15.888Z,27.19
2023-05-14T12:11:20.941Z,27.21
2023-05-14T12:16:22.900Z,27.41
2023-05-14T12:21:27.460Z,27.85
2023-05-14T12:26:33.653Z,27.65
2023-05-14T12:31:36.340Z,27.36
2023-05-14T12:36:38.533Z,27.21
2023-05-14T12:41:40.392Z,27.03
2023-05-14T12:46:42.410Z,26.95
2023-05-14T12:51:45.169Z,26.98
2023-05-14T12:56:47.050Z,27.01
2023-05-14T13:01:48.960Z,26.92
2023-05-14T13:06:50.856Z,26.88
2023-05-14T13:11:53.299Z,27.64
2023-05-14T13:16:55.532Z,28.46
2023-05-14T13:21:57.462Z,28.74
2023-05-14T13:26:59.271Z,29.27
2023-05-14T13:32:01.522Z,30.06
2023-05-14T13:37:03.843Z,29.97
2023-05-14T13:42:06.310Z,29.39
2023-05-14T13:47:08.282Z,28.86
2023-05-14T13:52:10.058Z,28.84
2023-05-14T13:57:11.757Z,29.59
2023-05-14T14:02:14.841Z,30.14
2023-05-14T14:07:16.619Z,30.50
2023-05-14T14:12:18.521Z,31.03
2023-05-14T14:17:20.578Z,31.28
2023-05-14T14:22:23.171Z,31.43
2023-05-14T14:27:27.316Z,31.85
2023-05-14T14:32:29.175Z,32.13
2023-05-14T14:37:31.001Z,32.02
2023-05-14T14:42:34.792Z,31.31
2023-05-14T14:47:36.795Z,30.49
2023-05-14T14:52:40.502Z,29.66
2023-05-14T14:57:42.259Z,29.06
2023-05-14T15:02:44.111Z,29.10
2023-05-14T15:07:46.329Z,29.52
2023-05-14T15:12:48.406Z,30.11
2023-05-14T15:17:50.611Z,30.54
2023-05-14T15:22:55.242Z,30.74
2023-05-14T15:27:57.205Z,30.45
2023-05-14T15:32:59.140Z,29.86
2023-05-14T15:38:01.065Z,29.14
2023-05-14T15:43:03.414Z,28.56
2023-05-14T15:48:05.905Z,28.14
2023-05-14T15:53:08.441Z,27.93
2023-05-14T15:58:12.356Z,28.37
2023-05-14T16:03:14.337Z,29.21
2023-05-14T16:08:16.334Z,29.76
2023-05-14T16:13:19.123Z,29.80
2023-05-14T16:18:21.708Z,29.76
2023-05-14T16:23:23.691Z,29.73
2023-05-14T16:28:25.668Z,29.80
2023-05-14T16:33:27.545Z,29.43
2023-05-14T16:38:29.433Z,29.02
2023-05-14T16:43:31.212Z,28.77
2023-05-14T16:48:33.120Z,28.70
2023-05-14T16:53:35.765Z,28.57
2023-05-14T16:58:37.754Z,28.43
2023-05-14T17:03:40.338Z,28.32
2023-05-14T17:08:42.233Z,28.18
2023-05-14T17:13:44.196Z,27.94
2023-05-14T17:18:48.765Z,27.78
2023-05-14T17:23:50.717Z,27.61
2023-05-14T17:28:52.600Z,27.49
2023-05-14T17:33:55.197Z,27.32
2023-05-14T17:38:57.691Z,27.06
2023-05-14T17:43:59.784Z,26.82
2023-05-14T17:49:01.969Z,26.52
2023-05-14T17:54:04.155Z,26.16
2023-05-14T17:59:06.735Z,25.80
2023-05-14T18:04:08.666Z,25.49
2023-05-14T18:09:10.933Z,25.15
2023-05-14T18:14:12.975Z,24.77
2023-05-14T18:19:15.317Z,24.38
2023-05-14T18:24:17.673Z,24.08
2023-05-14T18:29:19.566Z,23.85
2023-05-14T18:34:21.474Z,23.47
2023-05-14T18:39:23.426Z,22.98
2023-05-14T18:44:25.311Z,22.45
2023-05-14T18:49:27.368Z,22.01
2023-05-14T18:54:29.356Z,21.63
2023-05-14T18:59:31.530Z,21.27
2023-05-14T19:04:44.271Z,20.92
2023-05-14T19:09:52.790Z,20.63
2023-05-14T19:14:54.862Z,20.42
2023-05-14T19:19:56.966Z,20.15
2023-05-14T19:24:58.932Z,19.86
2023-05-14T19:30:01.033Z,19.49
2023-05-14T19:35:05.180Z,19.22
2023-05-14T19:40:08.582Z,19.08
2023-05-14T19:45:11.147Z,18.86
2023-05-14T19:50:13.133Z,18.57
2023-05-14T19:55:15.111Z,18.33
2023-05-14T20:00:17.611Z,18.08
2023-05-14T20:05:19.695Z,17.85
2023-05-14T20:10:21.649Z,17.63
2023-05-14T20:15:23.645Z,17.46
2023-05-14T20:20:27.097Z,17.30
2023-05-14T20:25:32.240Z,17.11
2023-05-14T20:30:34.631Z,16.93
2023-05-14T20:35:36.730Z,16.77
2023-05-14T20:40:38.874Z,16.66
2023-05-14T20:45:41.266Z,16.52
2023-05-14T20:50:43.920Z,16.32
2023-05-14T20:55:45.742Z,16.19
2023-05-14T21:00:47.719Z,16.13
2023-05-14T21:05:49.559Z,16.01
2023-05-14T21:10:51.272Z,15.87
2023-05-14T21:15:53.194Z,15.76
2023-05-14T21:20:55.222Z,15.68
2023-05-14T21:25:57.528Z,15.61
2023-05-14T21:30:59.356Z,15.61
2023-05-14T21:36:01.513Z,15.62
2023-05-14T21:41:03.361Z,15.61
2023-05-14T21:46:05.145Z,15.52
2023-05-14T21:51:07.510Z,15.39
2023-05-14T21:56:09.599Z,15.25
2023-05-14T22:01:11.501Z,15.05
2023-05-14T22:06:13.657Z,14.90
2023-05-14T22:11:15.544Z,14.84
2023-05-14T22:16:17.232Z,14.80
2023-05-14T22:21:19.187Z,14.71
2023-05-14T22:26:23.656Z,14.61
2023-05-14T22:31:25.432Z,14.59
2023-05-14T22:36:27.479Z,14.57
2023-05-14T22:41:29.475Z,14.52
2023-05-14T22:46:31.255Z,14.34
2023-05-14T22:51:33.227Z,14.19
2023-05-14T22:56:35.508Z,14.14
2023-05-14T23:01:37.448Z,14.12
2023-05-14T23:06:39.781Z,14.05
2023-05-14T23:11:41.559Z,14.02
2023-05-14T23:16:43.948Z,13.96
2023-05-14T23:21:46.029Z,13.89
2023-05-14T23:26:47.917Z,13.74
2023-05-14T23:31:50.451Z,13.60
2023-05-14T23:36:52.882Z,13.54
2023-05-14T23:41:54.755Z,13.46
2023-05-14T23:46:56.528Z,13.36
2023-05-14T23:51:58.304Z,13.26
2023-05-14T23:57:02.702Z,13.11
